createdAt,value
2019-02-15T00:01:27.495Z,21.03
2019-02-15T00:04:31.040Z,21.30
2019-02-15T00:07:34.580Z,17.23
2019-02-15T00:10:38.378Z,17.67
2019-02-15T00:13:41.917Z,18.70
2019-02-15T00:16:45.533Z,19.17
2019-02-15T00:19:52.590Z,16.20
2019-02-15T00:22:56.412Z,16.63
2019-02-15T00:25:59.953Z,15.93
2019-02-15T00:29:04.119Z,15.57
2019-02-15T00:32:07.665Z,16.93
2019-02-15T00:35:11.238Z,15.13
2019-02-15T00:38:14.801Z,15.33
2019-02-15T00:41:18.335Z,14.20
2019-02-15T00:44:21.873Z,15.70
2019-02-15T00:47:39.161Z,13.30
2019-02-15T00:51:04.830Z,15.47
2019-02-15T00:54:25.951Z,12.57
2019-02-15T00:57:51.335Z,13.27
2019-02-15T01:01:00.272Z,12.57
2019-02-15T01:04:12.575Z,12.43
2019-02-15T01:07:41.080Z,14.43
2019-02-15T01:10:54.162Z,11.47
2019-02-15T01:13:58.330Z,12.17
2019-02-15T01:17:02.942Z,11.60
2019-02-15T01:20:06.493Z,12.13
2019-02-15T01:23:10.328Z,11.30
2019-02-15T01:26:23.595Z,11.30
2019-02-15T01:29:52.551Z,10.50
2019-02-15T01:33:06.609Z,9.80
2019-02-15T01:36:19.757Z,11.60
2019-02-15T01:39:45.159Z,9.90
2019-02-15T01:42:59.327Z,11.40
2019-02-15T01:46:16.248Z,12.20
2019-02-15T01:49:20.080Z,10.27
2019-02-15T01:52:23.664Z,10.53
2019-02-15T01:55:27.199Z,10.50
2019-02-15T01:58:31.047Z,9.63
2019-02-15T02:01:34.863Z,10.63
2019-02-15T02:04:38.566Z,8.77
2019-02-15T02:07:42.103Z,10.33
2019-02-15T02:10:45.930Z,10.10
2019-02-15T02:13:50.106Z,8.43
2019-02-15T02:16:53.719Z,8.30
2019-02-15T02:19:57.242Z,8.17
2019-02-15T02:23:01.824Z,8.33
2019-02-15T02:26:05.932Z,8.60
2019-02-15T02:29:09.466Z,8.77
2019-02-15T02:32:13.268Z,8.03
2019-02-15T02:35:16.880Z,6.73
2019-02-15T02:38:20.506Z,7.47
2019-02-15T02:41:24.342Z,7.60
2019-02-15T02:44:28.143Z,7.80
2019-02-15T02:47:31.996Z,8.03
2019-02-15T02:50:35.578Z,8.27
2019-02-15T02:53:39.136Z,6.50
2019-02-15T02:56:42.659Z,7.60
2019-02-15T02:59:46.473Z,7.23
2019-02-15T03:02:50.303Z,6.47
2019-02-15T03:05:53.840Z,7.07
2019-02-15T03:08:57.379Z,6.90
2019-02-15T03:12:00.918Z,6.97
2019-02-15T03:15:04.878Z,6.90
2019-02-15T03:18:08.457Z,6.63
2019-02-15T03:21:11.995Z,6.63
2019-02-15T03:24:15.540Z,6.63
2019-02-15T03:27:19.524Z,6.13
2019-02-15T03:30:23.341Z,6.03
2019-02-15T03:33:26.883Z,5.87
2019-02-15T03:36:47.961Z,6.50
2019-02-15T03:39:54.693Z,7.60
2019-02-15T03:42:58.569Z,5.50
2019-02-15T03:46:02.260Z,6.70
2019-02-15T03:49:05.816Z,7.40
2019-02-15T03:52:09.682Z,6.33
2019-02-15T03:55:13.229Z,6.93
2019-02-15T03:58:16.761Z,6.37
2019-02-15T04:01:20.805Z,6.00
2019-02-15T04:04:24.540Z,5.90
2019-02-15T04:07:28.074Z,5.70
2019-02-15T04:10:31.657Z,5.60
2019-02-15T04:13:35.716Z,5.60
2019-02-15T04:16:39.548Z,6.83
2019-02-15T04:19:43.175Z,5.93
2019-02-15T04:22:46.708Z,5.70
2019-02-15T04:25:50.543Z,5.97
2019-02-15T04:28:54.085Z,5.00
2019-02-15T04:31:58.057Z,5.67
2019-02-15T04:35:01.619Z,6.63
2019-02-15T04:38:05.145Z,5.40
2019-02-15T04:41:08.697Z,5.47
2019-02-15T04:44:12.242Z,5.30
2019-02-15T04:47:15.785Z,4.37
2019-02-15T04:50:19.903Z,5.57
2019-02-15T04:53:23.547Z,4.97
2019-02-15T04:56:27.400Z,4.87
2019-02-15T04:59:31.018Z,6.67
2019-02-15T05:02:34.809Z,5.97
2019-02-15T05:05:38.351Z,4.37
2019-02-15T05:08:41.888Z,4.13
2019-02-15T05:11:45.447Z,4.67
2019-02-15T05:14:53.093Z,3.90
2019-02-15T05:17:54.571Z,4.77
2019-02-15T05:20:58.196Z,3.90
2019-02-15T05:24:01.747Z,12.53
2019-02-15T05:27:05.289Z,12.47
2019-02-15T05:30:08.931Z,7.57
2019-02-15T05:33:12.478Z,8.70
2019-02-15T05:36:16.039Z,7.83
2019-02-15T05:39:19.895Z,10.30
2019-02-15T05:42:23.451Z,16.60
2019-02-15T05:45:27.315Z,12.87
2019-02-15T05:48:30.905Z,11.13
2019-02-15T05:51:34.679Z,10.27
2019-02-15T05:54:38.536Z,13.03
2019-02-15T05:57:42.470Z,17.50
2019-02-15T06:00:46.008Z,17.27
2019-02-15T06:03:49.558Z,25.87
2019-02-15T06:06:53.111Z,14.03
2019-02-15T06:09:56.645Z,12.23
2019-02-15T06:13:00.197Z,13.97
2019-02-15T06:16:03.745Z,14.67
2019-02-15T06:19:07.304Z,10.30
2019-02-15T06:22:11.217Z,13.10
2019-02-15T06:25:15.085Z,11.07
2019-02-15T06:28:18.637Z,14.53
2019-02-15T06:31:22.172Z,10.97
2019-02-15T06:34:25.721Z,10.50
2019-02-15T06:37:30.064Z,9.13
2019-02-15T06:40:33.598Z,11.27
2019-02-15T06:43:37.267Z,8.10
2019-02-15T06:46:41.077Z,9.53
2019-02-15T06:49:44.619Z,9.03
2019-02-15T06:52:48.154Z,6.97
2019-02-15T06:55:51.700Z,13.83
2019-02-15T06:59:08.578Z,8.37
2019-02-15T07:02:19.156Z,12.20
2019-02-15T07:05:25.568Z,9.00
2019-02-15T07:08:29.416Z,6.67
2019-02-15T07:11:33.225Z,6.97
2019-02-15T07:14:36.776Z,11.93
2019-02-15T07:17:40.313Z,10.63
2019-02-15T07:20:44.188Z,10.30
2019-02-15T07:23:47.811Z,8.63
2019-02-15T07:26:51.360Z,5.77
2019-02-15T07:29:55.155Z,5.97
2019-02-15T07:32:59.001Z,6.27
2019-02-15T07:36:02.545Z,6.93
2019-02-15T07:39:06.359Z,5.67
2019-02-15T07:42:09.897Z,6.57
2019-02-15T07:45:13.446Z,11.77
2019-02-15T07:48:17.032Z,9.07
2019-02-15T07:51:20.937Z,6.27
2019-02-15T07:54:24.782Z,6.00
2019-02-15T07:57:28.655Z,8.87
2019-02-15T08:00:32.288Z,6.03
2019-02-15T08:03:35.803Z,7.03
2019-02-15T08:06:39.365Z,7.67
2019-02-15T08:09:43.261Z,7.00
2019-02-15T08:12:47.093Z,6.27
2019-02-15T08:15:52.260Z,7.40
2019-02-15T08:18:56.532Z,8.13
2019-02-15T08:22:00.079Z,6.13
2019-02-15T08:25:03.641Z,6.43
2019-02-15T08:28:07.190Z,5.57
2019-02-15T08:31:11.052Z,6.80
2019-02-15T08:34:14.589Z,6.23
2019-02-15T08:37:18.149Z,5.10
2019-02-15T08:40:21.963Z,5.30
2019-02-15T08:43:25.493Z,6.20
2019-02-15T08:46:29.375Z,6.93
2019-02-15T08:49:32.975Z,12.43
2019-02-15T08:52:37.410Z,12.43
2019-02-15T08:55:41.300Z,12.30
2019-02-15T08:58:44.845Z,13.45
2019-02-15T09:02:03.378Z,15.32
2019-02-15T09:05:08.449Z,14.33
2019-02-15T09:08:12.075Z,12.85
2019-02-15T09:11:15.637Z,11.38
2019-02-15T09:14:19.926Z,10.40
2019-02-15T09:17:23.476Z,22.55
2019-02-15T09:20:27.009Z,7.40
2019-02-15T09:23:30.560Z,6.53
2019-02-15T09:26:34.276Z,6.33
2019-02-15T09:29:37.817Z,5.20
2019-02-15T09:32:41.361Z,4.53
2019-02-15T09:35:45.184Z,6.05
2019-02-15T09:38:48.741Z,4.17
2019-02-15T09:41:52.304Z,4.47
2019-02-15T09:44:56.089Z,5.00
2019-02-15T09:47:59.971Z,4.47
2019-02-15T09:51:03.761Z,6.65
2019-02-15T09:54:07.306Z,5.58
2019-02-15T09:57:10.845Z,5.22
2019-02-15T10:00:14.387Z,3.90
2019-02-15T10:03:17.944Z,3.45
2019-02-15T10:06:21.476Z,4.30
2019-02-15T10:09:25.643Z,4.00
2019-02-15T10:12:29.170Z,3.47
2019-02-15T10:15:32.711Z,3.60
2019-02-15T10:18:36.259Z,4.87
2019-02-15T10:21:40.121Z,4.27
2019-02-15T10:24:43.672Z,4.13
2019-02-15T10:27:47.213Z,4.17
2019-02-15T10:30:50.755Z,3.30
2019-02-15T10:33:54.575Z,4.63
2019-02-15T10:36:58.154Z,3.80
2019-02-15T10:40:01.979Z,3.90
2019-02-15T10:43:05.796Z,3.00
2019-02-15T10:46:09.640Z,3.47
2019-02-15T10:49:13.187Z,3.50
2019-02-15T10:52:16.985Z,4.00
2019-02-15T10:55:20.856Z,3.33
2019-02-15T10:58:26.331Z,3.73
2019-02-15T11:01:29.962Z,3.73
2019-02-15T11:04:33.793Z,4.30
2019-02-15T11:07:37.332Z,4.00
2019-02-15T11:10:41.219Z,3.13
2019-02-15T11:13:44.755Z,4.43
2019-02-15T11:16:48.291Z,3.33
2019-02-15T11:19:51.833Z,3.40
2019-02-15T11:22:55.455Z,3.30
2019-02-15T11:25:59.059Z,4.17
2019-02-15T11:29:02.931Z,3.87
2019-02-15T11:32:06.651Z,5.53
2019-02-15T11:35:11.300Z,4.00
2019-02-15T11:38:14.852Z,3.80
2019-02-15T11:41:18.392Z,3.47
2019-02-15T11:44:22.267Z,4.10
2019-02-15T11:47:27.664Z,3.27
2019-02-15T11:50:31.469Z,4.13
2019-02-15T11:53:35.009Z,3.70
2019-02-15T11:56:38.552Z,2.93
2019-02-15T11:59:42.092Z,3.73
2019-02-15T12:02:45.636Z,3.87
2019-02-15T12:05:49.532Z,3.73
2019-02-15T12:08:53.068Z,3.10
2019-02-15T12:11:56.956Z,4.00
2019-02-15T12:15:00.484Z,2.43
2019-02-15T12:18:04.200Z,2.70
2019-02-15T12:21:08.301Z,5.30
2019-02-15T12:24:11.836Z,3.33
2019-02-15T12:27:15.379Z,3.37
2019-02-15T12:30:18.914Z,3.03
2019-02-15T12:33:22.716Z,3.13
2019-02-15T12:36:26.492Z,3.27
2019-02-15T12:39:30.049Z,3.00
2019-02-15T12:42:34.144Z,2.93
2019-02-15T12:45:37.680Z,2.90
2019-02-15T12:48:41.213Z,3.40
2019-02-15T12:51:44.748Z,2.27
2019-02-15T12:54:48.297Z,2.57
2019-02-15T12:57:52.248Z,3.27
2019-02-15T13:00:55.775Z,3.27
2019-02-15T13:03:59.317Z,2.60
2019-02-15T13:07:03.167Z,3.07
2019-02-15T13:10:07.308Z,2.40
2019-02-15T13:13:11.229Z,2.53
2019-02-15T13:16:14.839Z,2.77
2019-02-15T13:19:18.381Z,2.47
2019-02-15T13:22:21.912Z,2.80
2019-02-15T13:25:25.749Z,3.60
2019-02-15T13:28:29.295Z,2.90
2019-02-15T13:31:32.827Z,3.03
2019-02-15T13:34:36.680Z,3.07
2019-02-15T13:37:40.384Z,3.17
2019-02-15T13:40:43.925Z,2.60
2019-02-15T13:43:47.758Z,3.27
2019-02-15T13:46:51.298Z,2.57
2019-02-15T13:49:55.506Z,2.60
2019-02-15T13:52:59.033Z,3.93
2019-02-15T13:56:02.584Z,3.37
2019-02-15T13:59:06.371Z,1.93
2019-02-15T14:02:10.209Z,3.00
2019-02-15T14:05:13.837Z,2.80
2019-02-15T14:08:17.630Z,2.10
2019-02-15T14:11:21.463Z,3.07
2019-02-15T14:14:25.306Z,2.83
2019-02-15T14:17:29.155Z,2.93
2019-02-15T14:20:33.035Z,3.63
2019-02-15T14:23:36.601Z,2.83
2019-02-15T14:26:40.479Z,10.90
2019-02-15T14:29:44.561Z,3.87
2019-02-15T14:32:48.122Z,11.20
2019-02-15T14:35:51.671Z,6.27
2019-02-15T14:38:55.453Z,5.53
2019-02-15T14:41:59.308Z,5.03
2019-02-15T14:45:02.856Z,4.30
2019-02-15T14:48:06.408Z,3.43
2019-02-15T14:51:10.026Z,5.33
2019-02-15T14:54:14.456Z,5.53
2019-02-15T14:57:18.019Z,4.70
2019-02-15T15:00:21.967Z,4.00
2019-02-15T15:03:25.860Z,7.80
2019-02-15T15:06:29.734Z,24.53
2019-02-15T15:09:33.283Z,111.17
2019-02-15T15:12:37.195Z,138.43
2019-02-15T15:15:40.845Z,127.80
2019-02-15T15:18:44.387Z,121.67
2019-02-15T15:21:48.206Z,113.70
2019-02-15T15:24:51.748Z,66.03
2019-02-15T15:27:55.318Z,67.67
2019-02-15T15:30:58.867Z,72.73
2019-02-15T15:34:03.065Z,64.60
2019-02-15T15:37:15.962Z,60.93
2019-02-15T15:40:12.746Z,64.90
2019-02-15T15:43:16.558Z,60.40
2019-02-15T15:46:20.263Z,57.87
2019-02-15T15:49:23.797Z,52.77
2019-02-15T15:52:27.333Z,43.77
2019-02-15T15:55:31.154Z,52.87
2019-02-15T15:58:35.058Z,46.40
2019-02-15T16:01:38.950Z,47.70
2019-02-15T16:04:43.057Z,44.13
2019-02-15T16:07:46.606Z,42.23
2019-02-15T16:10:50.503Z,42.33
2019-02-15T16:13:54.050Z,41.63
2019-02-15T16:16:57.846Z,40.80
2019-02-15T16:20:01.699Z,36.83
2019-02-15T16:23:05.360Z,34.50
2019-02-15T16:26:09.215Z,35.00
2019-02-15T16:29:14.073Z,34.73
2019-02-15T16:32:18.098Z,34.33
2019-02-15T16:35:21.968Z,32.13
2019-02-15T16:38:25.525Z,30.63
2019-02-15T16:41:29.377Z,33.20
2019-02-15T16:44:32.932Z,31.50
2019-02-15T16:47:37.129Z,31.90
2019-02-15T16:50:40.672Z,27.70
2019-02-15T16:53:44.518Z,26.10
2019-02-15T16:56:48.082Z,31.80
2019-02-15T16:59:51.617Z,27.57
2019-02-15T17:02:55.182Z,28.00
2019-02-15T17:05:58.723Z,24.37
2019-02-15T17:09:03.559Z,22.83
2019-02-15T17:12:07.098Z,26.20
2019-02-15T17:15:11.614Z,27.63
2019-02-15T17:18:15.454Z,25.07
2019-02-15T17:21:19.423Z,22.70
2019-02-15T17:24:22.975Z,22.37
2019-02-15T17:27:26.820Z,22.17
2019-02-15T17:30:30.381Z,20.80
2019-02-15T17:33:33.932Z,22.10
2019-02-15T17:36:37.474Z,20.83
2019-02-15T17:39:41.026Z,21.03
2019-02-15T17:42:44.565Z,20.67
2019-02-15T17:45:48.949Z,21.70
2019-02-15T17:49:00.517Z,20.73
2019-02-15T17:51:57.865Z,23.43
2019-02-15T17:55:01.423Z,19.77
2019-02-15T17:58:04.962Z,17.67
2019-02-15T18:01:08.835Z,20.10
2019-02-15T18:04:12.391Z,18.47
2019-02-15T18:07:16.249Z,18.97
2019-02-15T18:10:20.074Z,17.93
2019-02-15T18:13:23.910Z,17.07
2019-02-15T18:16:27.447Z,15.80
2019-02-15T18:19:30.997Z,18.53
2019-02-15T18:22:34.535Z,17.93
2019-02-15T18:25:38.087Z,16.33
2019-02-15T18:28:41.925Z,14.87
2019-02-15T18:31:45.479Z,16.33
2019-02-15T18:34:49.404Z,13.43
2019-02-15T18:37:52.955Z,15.13
2019-02-15T18:40:56.493Z,13.93
2019-02-15T18:44:00.036Z,15.23
2019-02-15T18:47:04.145Z,14.93
2019-02-15T18:50:08.301Z,13.47
2019-02-15T18:53:12.101Z,14.97
2019-02-15T18:56:15.958Z,15.20
2019-02-15T18:59:19.497Z,12.30
2019-02-15T19:02:23.037Z,12.33
2019-02-15T19:05:26.590Z,13.17
2019-02-15T19:08:30.125Z,13.00
2019-02-15T19:11:33.674Z,11.07
2019-02-15T19:14:37.505Z,12.33
2019-02-15T19:17:41.051Z,13.23
2019-02-15T19:20:44.603Z,10.20
2019-02-15T19:23:48.146Z,14.20
2019-02-15T19:26:51.766Z,11.43
2019-02-15T19:29:55.750Z,10.70
2019-02-15T19:32:59.567Z,9.63
2019-02-15T19:36:03.299Z,10.83
2019-02-15T19:39:07.214Z,14.70
2019-02-15T19:42:15.012Z,9.43
2019-02-15T19:45:18.558Z,10.13
2019-02-15T19:48:22.372Z,9.40
2019-02-15T19:51:25.913Z,10.30
2019-02-15T19:54:29.455Z,8.77
2019-02-15T19:57:32.998Z,8.77
2019-02-15T20:00:36.821Z,11.70
2019-02-15T20:03:40.625Z,7.03
2019-02-15T20:06:44.162Z,8.43
2019-02-15T20:09:47.711Z,9.30
2019-02-15T20:12:51.247Z,9.77
2019-02-15T20:15:55.089Z,9.73
2019-02-15T20:18:58.954Z,9.10
2019-02-15T20:22:02.490Z,7.83
2019-02-15T20:25:06.687Z,7.47
2019-02-15T20:28:14.013Z,8.97
2019-02-15T20:31:15.503Z,7.67
2019-02-15T20:34:19.048Z,8.10
2019-02-15T20:37:22.600Z,9.70
2019-02-15T20:40:26.134Z,8.53
2019-02-15T20:43:29.677Z,9.83
2019-02-15T20:46:33.213Z,6.97
2019-02-15T20:49:37.325Z,8.27
2019-02-15T20:52:41.162Z,7.60
2019-02-15T20:55:45.217Z,7.73
2019-02-15T20:58:48.766Z,6.37
2019-02-15T21:01:52.633Z,7.27
2019-02-15T21:04:56.475Z,6.93
2019-02-15T21:08:00.279Z,6.37
2019-02-15T21:11:03.820Z,9.63
2019-02-15T21:14:07.365Z,7.93
2019-02-15T21:17:10.906Z,7.20
2019-02-15T21:20:14.460Z,6.43
2019-02-15T21:23:18.279Z,7.57
2019-02-15T21:26:22.421Z,6.23
2019-02-15T21:29:26.308Z,7.47
2019-02-15T21:32:29.840Z,7.00
2019-02-15T21:35:33.669Z,9.93
2019-02-15T21:38:37.226Z,7.73
2019-02-15T21:41:40.760Z,6.80
2019-02-15T21:44:44.582Z,6.67
2019-02-15T21:47:48.361Z,7.17
2019-02-15T21:50:51.900Z,6.60
2019-02-15T21:53:55.608Z,6.93
2019-02-15T21:56:59.144Z,7.50
2019-02-15T22:00:02.688Z,6.20
2019-02-15T22:03:06.219Z,6.00
2019-02-15T22:06:09.768Z,5.37
2019-02-15T22:09:13.321Z,6.37
2019-02-15T22:12:17.113Z,5.70
2019-02-15T22:15:20.908Z,6.33
2019-02-15T22:18:24.441Z,6.10
2019-02-15T22:21:27.984Z,5.97
2019-02-15T22:24:31.820Z,6.90
2019-02-15T22:27:35.350Z,5.83
2019-02-15T22:30:38.893Z,6.17
2019-02-15T22:33:42.706Z,6.37
2019-02-15T22:36:46.254Z,9.13
2019-02-15T22:39:49.813Z,8.47
2019-02-15T22:42:53.351Z,8.13
2019-02-15T22:45:57.153Z,9.57
2019-02-15T22:49:00.689Z,6.37
2019-02-15T22:52:04.241Z,7.70
2019-02-15T22:55:08.164Z,7.40
2019-02-15T22:58:12.287Z,6.70
2019-02-15T23:01:18.055Z,5.53
2019-02-15T23:04:21.617Z,6.53
2019-02-15T23:07:25.159Z,6.60
2019-02-15T23:10:28.999Z,42.17
2019-02-15T23:13:32.547Z,106.97
2019-02-15T23:16:36.098Z,91.23
2019-02-15T23:19:39.958Z,70.57
2019-02-15T23:22:43.785Z,83.90
2019-02-15T23:25:47.569Z,71.93
2019-02-15T23:28:51.163Z,63.97
2019-02-15T23:31:54.990Z,65.23
2019-02-15T23:34:58.543Z,55.87
2019-02-15T23:38:02.418Z,55.00
2019-02-15T23:41:05.980Z,51.10
2019-02-15T23:44:09.801Z,50.10
2019-02-15T23:47:13.355Z,48.93
2019-02-15T23:50:17.225Z,42.23
2019-02-15T23:53:20.770Z,40.70
2019-02-15T23:56:24.649Z,39.60
2019-02-15T23:59:28.507Z,38.27
